sensor_id;sensor_type;location;lat;lon;timestamp;P1;durP1;ratioP1;P2;durP2;ratioP2
34359;SDS011;20624;55.870;26.506;2023-03-23T00:01:23;18.05;;;6.78;;
34359;SDS011;20624;55.870;26.506;2023-03-23T00:03:52;15.25;;;6.88;;
34359;SDS011;20624;55.870;26.506;2023-03-23T00:06:22;14.50;;;6.60;;
34359;SDS011;20624;55.870;26.506;2023-03-23T00:08:49;14.43;;;6.40;;
34359;SDS011;20624;55.870;26.506;2023-03-23T00:11:22;17.83;;;7.20;;
34359;SDS011;20624;55.870;26.506;2023-03-23T00:13:51;14.73;;;6.72;;
34359;SDS011;20624;55.870;26.506;2023-03-23T00:16:19;15.90;;;7.63;;
34359;SDS011;20624;55.870;26.506;2023-03-23T00:18:46;14.57;;;7.22;;
34359;SDS011;20624;55.870;26.506;2023-03-23T00:21:15;16.67;;;7.13;;
34359;SDS011;20624;55.870;26.506;2023-03-23T00:23:41;19.23;;;9.02;;
34359;SDS011;20624;55.870;26.506;2023-03-23T00:26:10;17.65;;;9.00;;
34359;SDS011;20624;55.870;26.506;2023-03-23T00:28:37;17.10;;;7.95;;
34359;SDS011;20624;55.870;26.506;2023-03-23T00:31:05;19.88;;;8.07;;
34359;SDS011;20624;55.870;26.506;2023-03-23T00:33:33;17.70;;;8.07;;
34359;SDS011;20624;55.870;26.506;2023-03-23T00:36:03;19.25;;;9.10;;
34359;SDS011;20624;55.870;26.506;2023-03-23T00:38:30;23.95;;;9.77;;
34359;SDS011;20624;55.870;26.506;2023-03-23T00:40:56;25.60;;;9.15;;
34359;SDS011;20624;55.870;26.506;2023-03-23T00:43:30;20.35;;;9.15;;
34359;SDS011;20624;55.870;26.506;2023-03-23T00:45:56;21.00;;;9.15;;
34359;SDS011;20624;55.870;26.506;2023-03-23T00:48:26;21.45;;;8.80;;
34359;SDS011;20624;55.870;26.506;2023-03-23T00:50:54;16.05;;;7.78;;
34359;SDS011;20624;55.870;26.506;2023-03-23T00:53:21;55.22;;;13.23;;
34359;SDS011;20624;55.870;26.506;2023-03-23T00:55:48;80.60;;;15.82;;
34359;SDS011;20624;55.870;26.506;2023-03-23T00:58:15;77.78;;;15.55;;
34359;SDS011;20624;55.870;26.506;2023-03-23T01:00:41;94.30;;;17.92;;
34359;SDS011;20624;55.870;26.506;2023-03-23T01:03:09;76.20;;;15.05;;
34359;SDS011;20624;55.870;26.506;2023-03-23T01:05:43;74.28;;;15.13;;
34359;SDS011;20624;55.870;26.506;2023-03-23T01:08:12;73.63;;;16.10;;
34359;SDS011;20624;55.870;26.506;2023-03-23T01:10:39;82.13;;;16.00;;
34359;SDS011;20624;55.870;26.506;2023-03-23T01:13:07;61.00;;;12.73;;
34359;SDS011;20624;55.870;26.506;2023-03-23T01:15:33;96.43;;;18.42;;
34359;SDS011;20624;55.870;26.506;2023-03-23T01:18:00;102.95;;;18.67;;
34359;SDS011;20624;55.870;26.506;2023-03-23T01:20:27;81.05;;;16.67;;
34359;SDS011;20624;55.870;26.506;2023-03-23T01:22:57;66.60;;;14.10;;
34359;SDS011;20624;55.870;26.506;2023-03-23T01:27:53;48.63;;;10.98;;
34359;SDS011;20624;55.870;26.506;2023-03-23T01:30:20;45.60;;;10.85;;
34359;SDS011;20624;55.870;26.506;2023-03-23T01:32:46;61.72;;;13.02;;
34359;SDS011;20624;55.870;26.506;2023-03-23T01:35:13;57.50;;;13.20;;
34359;SDS011;20624;55.870;26.506;2023-03-23T01:37:40;62.53;;;13.43;;
34359;SDS011;20624;55.870;26.506;2023-03-23T01:40:06;42.80;;;10.52;;
34359;SDS011;20624;55.870;26.506;2023-03-23T01:42:34;61.97;;;12.68;;
34359;SDS011;20624;55.870;26.506;2023-03-23T01:45:23;42.55;;;9.80;;
34359;SDS011;20624;55.870;26.506;2023-03-23T01:47:52;73.18;;;14.35;;
34359;SDS011;20624;55.870;26.506;2023-03-23T01:50:21;85.70;;;15.73;;
34359;SDS011;20624;55.870;26.506;2023-03-23T01:52:50;48.60;;;10.88;;
34359;SDS011;20624;55.870;26.506;2023-03-23T01:55:17;39.92;;;9.85;;
34359;SDS011;20624;55.870;26.506;2023-03-23T01:57:44;39.20;;;10.48;;
34359;SDS011;20624;55.870;26.506;2023-03-23T02:00:11;42.10;;;10.38;;
34359;SDS011;20624;55.870;26.506;2023-03-23T02:02:40;43.83;;;9.57;;
34359;SDS011;20624;55.870;26.506;2023-03-23T02:05:08;50.08;;;12.32;;
34359;SDS011;20624;55.870;26.506;2023-03-23T02:07:38;46.78;;;11.68;;
34359;SDS011;20624;55.870;26.506;2023-03-23T02:10:05;43.92;;;11.35;;
34359;SDS011;20624;55.870;26.506;2023-03-23T02:12:32;44.03;;;11.35;;
34359;SDS011;20624;55.870;26.506;2023-03-23T02:14:59;46.63;;;11.98;;
34359;SDS011;20624;55.870;26.506;2023-03-23T02:20:06;44.40;;;11.13;;
34359;SDS011;20624;55.870;26.506;2023-03-23T02:25:39;51.40;;;13.55;;
34359;SDS011;20624;55.870;26.506;2023-03-23T02:28:36;46.25;;;11.98;;
34359;SDS011;20624;55.870;26.506;2023-03-23T02:38:40;39.38;;;11.85;;
34359;SDS011;20624;55.870;26.506;2023-03-23T02:41:22;40.90;;;11.18;;
34359;SDS011;20624;55.870;26.506;2023-03-23T02:43:50;31.40;;;7.43;;
34359;SDS011;20624;55.870;26.506;2023-03-23T02:46:17;46.42;;;11.35;;
34359;SDS011;20624;55.870;26.506;2023-03-23T02:48:45;51.47;;;12.02;;
34359;SDS011;20624;55.870;26.506;2023-03-23T02:51:14;35.72;;;11.32;;
34359;SDS011;20624;55.870;26.506;2023-03-23T02:53:42;39.17;;;11.05;;
34359;SDS011;20624;55.870;26.506;2023-03-23T02:56:09;45.22;;;11.45;;
34359;SDS011;20624;55.870;26.506;2023-03-23T02:58:36;39.17;;;10.07;;
34359;SDS011;20624;55.870;26.506;2023-03-23T03:03:55;49.03;;;11.90;;
34359;SDS011;20624;55.870;26.506;2023-03-23T03:09:16;55.67;;;12.45;;
34359;SDS011;20624;55.870;26.506;2023-03-23T03:11:45;44.70;;;11.40;;
34359;SDS011;20624;55.870;26.506;2023-03-23T03:14:15;45.78;;;12.18;;
34359;SDS011;20624;55.870;26.506;2023-03-23T03:16:54;45.88;;;12.00;;
34359;SDS011;20624;55.870;26.506;2023-03-23T03:19:24;51.78;;;12.27;;
34359;SDS011;20624;55.870;26.506;2023-03-23T03:21:52;54.17;;;12.07;;
34359;SDS011;20624;55.870;26.506;2023-03-23T03:24:20;39.35;;;10.90;;
34359;SDS011;20624;55.870;26.506;2023-03-23T03:26:48;47.50;;;12.98;;
34359;SDS011;20624;55.870;26.506;2023-03-23T03:29:16;50.78;;;13.77;;
34359;SDS011;20624;55.870;26.506;2023-03-23T03:31:46;57.42;;;16.13;;
34359;SDS011;20624;55.870;26.506;2023-03-23T03:34:14;57.85;;;15.55;;
34359;SDS011;20624;55.870;26.506;2023-03-23T03:36:45;54.13;;;17.50;;
34359;SDS011;20624;55.870;26.506;2023-03-23T03:39:13;56.08;;;17.15;;
34359;SDS011;20624;55.870;26.506;2023-03-23T03:41:41;39.53;;;14.02;;
34359;SDS011;20624;55.870;26.506;2023-03-23T03:44:07;50.45;;;12.88;;
34359;SDS011;20624;55.870;26.506;2023-03-23T03:46:35;66.97;;;14.98;;
34359;SDS011;20624;55.870;26.506;2023-03-23T03:49:02;32.72;;;6.75;;
34359;SDS011;20624;55.870;26.506;2023-03-23T03:51:29;69.82;;;18.75;;
34359;SDS011;20624;55.870;26.506;2023-03-23T03:53:56;56.92;;;16.88;;
34359;SDS011;20624;55.870;26.506;2023-03-23T03:56:23;56.40;;;14.02;;
34359;SDS011;20624;55.870;26.506;2023-03-23T03:58:51;61.95;;;14.50;;
34359;SDS011;20624;55.870;26.506;2023-03-23T04:01:18;44.13;;;13.00;;
34359;SDS011;20624;55.870;26.506;2023-03-23T04:03:48;56.15;;;13.90;;
34359;SDS011;20624;55.870;26.506;2023-03-23T04:06:17;64.00;;;14.13;;
34359;SDS011;20624;55.870;26.506;2023-03-23T04:08:44;52.90;;;13.60;;
34359;SDS011;20624;55.870;26.506;2023-03-23T04:11:11;57.70;;;13.95;;
34359;SDS011;20624;55.870;26.506;2023-03-23T04:13:39;51.50;;;13.27;;
34359;SDS011;20624;55.870;26.506;2023-03-23T04:16:05;59.13;;;15.25;;
34359;SDS011;20624;55.870;26.506;2023-03-23T04:18:32;53.88;;;13.32;;
34359;SDS011;20624;55.870;26.506;2023-03-23T04:20:59;41.13;;;11.38;;
34359;SDS011;20624;55.870;26.506;2023-03-23T04:23:26;56.60;;;11.98;;
34359;SDS011;20624;55.870;26.506;2023-03-23T04:25:55;39.03;;;10.23;;
34359;SDS011;20624;55.870;26.506;2023-03-23T04:28:23;45.60;;;12.93;;
34359;SDS011;20624;55.870;26.506;2023-03-23T04:30:51;45.45;;;12.35;;
34359;SDS011;20624;55.870;26.506;2023-03-23T04:33:24;58.03;;;12.75;;
34359;SDS011;20624;55.870;26.506;2023-03-23T04:35:53;19.48;;;8.88;;
34359;SDS011;20624;55.870;26.506;2023-03-23T04:38:21;36.60;;;10.70;;
34359;SDS011;20624;55.870;26.506;2023-03-23T04:40:49;42.42;;;11.82;;
34359;SDS011;20624;55.870;26.506;2023-03-23T04:43:17;51.70;;;14.35;;
34359;SDS011;20624;55.870;26.506;2023-03-23T04:45:47;39.80;;;10.35;;
34359;SDS011;20624;55.870;26.506;2023-03-23T04:48:14;49.45;;;12.38;;
34359;SDS011;20624;55.870;26.506;2023-03-23T04:50:41;36.45;;;10.70;;
34359;SDS011;20624;55.870;26.506;2023-03-23T04:53:08;48.58;;;13.60;;
34359;SDS011;20624;55.870;26.506;2023-03-23T04:55:35;57.13;;;14.90;;
34359;SDS011;20624;55.870;26.506;2023-03-23T04:58:06;53.83;;;13.80;;
34359;SDS011;20624;55.870;26.506;2023-03-23T05:00:33;53.70;;;13.30;;
34359;SDS011;20624;55.870;26.506;2023-03-23T05:03:00;52.28;;;12.60;;
34359;SDS011;20624;55.870;26.506;2023-03-23T05:05:27;52.17;;;13.52;;
34359;SDS011;20624;55.870;26.506;2023-03-23T05:07:55;45.92;;;11.73;;
34359;SDS011;20624;55.870;26.506;2023-03-23T05:10:23;38.60;;;10.30;;
34359;SDS011;20624;55.870;26.506;2023-03-23T05:12:49;52.85;;;13.27;;
34359;SDS011;20624;55.870;26.506;2023-03-23T05:15:16;50.75;;;12.82;;
34359;SDS011;20624;55.870;26.506;2023-03-23T05:17:43;49.75;;;12.18;;
34359;SDS011;20624;55.870;26.506;2023-03-23T05:20:10;47.20;;;11.10;;
34359;SDS011;20624;55.870;26.506;2023-03-23T05:22:37;49.30;;;13.63;;
34359;SDS011;20624;55.870;26.506;2023-03-23T05:25:04;52.20;;;12.05;;
34359;SDS011;20624;55.870;26.506;2023-03-23T05:27:34;46.60;;;13.52;;
34359;SDS011;20624;55.870;26.506;2023-03-23T05:30:01;43.10;;;11.85;;
34359;SDS011;20624;55.870;26.506;2023-03-23T05:32:28;34.50;;;10.90;;
34359;SDS011;20624;55.870;26.506;2023-03-23T05:34:59;47.15;;;11.15;;
34359;SDS011;20624;55.870;26.506;2023-03-23T05:37:27;63.67;;;14.52;;
34359;SDS011;20624;55.870;26.506;2023-03-23T05:39:57;60.20;;;14.50;;
34359;SDS011;20624;55.870;26.506;2023-03-23T05:42:26;53.78;;;14.45;;
34359;SDS011;20624;55.870;26.506;2023-03-23T05:44:53;52.50;;;12.82;;
34359;SDS011;20624;55.870;26.506;2023-03-23T05:47:19;42.33;;;11.93;;
34359;SDS011;20624;55.870;26.506;2023-03-23T05:49:46;51.22;;;12.48;;
34359;SDS011;20624;55.870;26.506;2023-03-23T05:52:12;69.57;;;15.68;;
34359;SDS011;20624;55.870;26.506;2023-03-23T05:54:39;53.58;;;12.82;;
34359;SDS011;20624;55.870;26.506;2023-03-23T05:57:06;65.75;;;14.63;;
34359;SDS011;20624;55.870;26.506;2023-03-23T05:59:34;40.75;;;12.25;;
34359;SDS011;20624;55.870;26.506;2023-03-23T06:02:01;47.10;;;12.75;;
34359;SDS011;20624;55.870;26.506;2023-03-23T06:04:27;64.65;;;15.85;;
34359;SDS011;20624;55.870;26.506;2023-03-23T06:06:54;50.25;;;14.55;;
34359;SDS011;20624;55.870;26.506;2023-03-23T06:09:21;52.58;;;14.43;;
34359;SDS011;20624;55.870;26.506;2023-03-23T06:11:48;90.75;;;18.90;;
34359;SDS011;20624;55.870;26.506;2023-03-23T06:14:15;67.40;;;15.02;;
34359;SDS011;20624;55.870;26.506;2023-03-23T06:16:42;50.50;;;13.40;;
34359;SDS011;20624;55.870;26.506;2023-03-23T06:19:09;71.85;;;15.38;;
34359;SDS011;20624;55.870;26.506;2023-03-23T06:21:36;62.78;;;13.95;;
34359;SDS011;20624;55.870;26.506;2023-03-23T06:24:02;81.45;;;16.73;;
34359;SDS011;20624;55.870;26.506;2023-03-23T06:26:30;58.95;;;15.63;;
34359;SDS011;20624;55.870;26.506;2023-03-23T06:28:58;61.40;;;14.07;;
34359;SDS011;20624;55.870;26.506;2023-03-23T06:31:25;55.47;;;13.70;;
34359;SDS011;20624;55.870;26.506;2023-03-23T06:33:52;59.03;;;14.20;;
34359;SDS011;20624;55.870;26.506;2023-03-23T06:36:19;63.63;;;14.73;;
34359;SDS011;20624;55.870;26.506;2023-03-23T06:38:46;41.50;;;11.63;;
34359;SDS011;20624;55.870;26.506;2023-03-23T06:41:12;38.78;;;11.15;;
34359;SDS011;20624;55.870;26.506;2023-03-23T06:43:39;28.70;;;8.07;;
34359;SDS011;20624;55.870;26.506;2023-03-23T06:46:06;42.17;;;9.88;;
34359;SDS011;20624;55.870;26.506;2023-03-23T06:48:33;44.63;;;7.15;;
34359;SDS011;20624;55.870;26.506;2023-03-23T06:50:59;51.05;;;7.65;;
34359;SDS011;20624;55.870;26.506;2023-03-23T06:53:26;32.50;;;7.05;;
34359;SDS011;20624;55.870;26.506;2023-03-23T06:55:52;37.08;;;5.93;;
34359;SDS011;20624;55.870;26.506;2023-03-23T06:58:19;37.90;;;7.28;;
34359;SDS011;20624;55.870;26.506;2023-03-23T07:00:48;35.03;;;7.15;;
34359;SDS011;20624;55.870;26.506;2023-03-23T07:03:18;35.70;;;7.63;;
34359;SDS011;20624;55.870;26.506;2023-03-23T07:05:48;31.90;;;6.50;;
34359;SDS011;20624;55.870;26.506;2023-03-23T07:08:15;41.38;;;8.00;;
34359;SDS011;20624;55.870;26.506;2023-03-23T07:10:41;29.52;;;6.18;;
34359;SDS011;20624;55.870;26.506;2023-03-23T07:13:09;36.28;;;7.78;;
34359;SDS011;20624;55.870;26.506;2023-03-23T07:15:36;58.92;;;12.98;;
34359;SDS011;20624;55.870;26.506;2023-03-23T07:18:02;47.63;;;11.75;;
34359;SDS011;20624;55.870;26.506;2023-03-23T07:20:29;42.35;;;10.50;;
34359;SDS011;20624;55.870;26.506;2023-03-23T07:22:55;35.22;;;6.35;;
34359;SDS011;20624;55.870;26.506;2023-03-23T07:25:22;35.22;;;11.82;;
34359;SDS011;20624;55.870;26.506;2023-03-23T07:27:48;49.33;;;13.52;;
34359;SDS011;20624;55.870;26.506;2023-03-23T07:30:15;52.70;;;12.25;;
34359;SDS011;20624;55.870;26.506;2023-03-23T07:32:42;56.25;;;14.48;;
34359;SDS011;20624;55.870;26.506;2023-03-23T07:35:09;48.47;;;12.85;;
34359;SDS011;20624;55.870;26.506;2023-03-23T07:37:36;47.92;;;13.30;;
34359;SDS011;20624;55.870;26.506;2023-03-23T07:40:03;57.42;;;13.70;;
34359;SDS011;20624;55.870;26.506;2023-03-23T07:42:51;34.95;;;9.68;;
34359;SDS011;20624;55.870;26.506;2023-03-23T07:45:18;33.95;;;12.07;;
34359;SDS011;20624;55.870;26.506;2023-03-23T07:47:45;33.60;;;11.15;;
34359;SDS011;20624;55.870;26.506;2023-03-23T07:50:11;67.35;;;15.48;;
34359;SDS011;20624;55.870;26.506;2023-03-23T07:52:39;56.47;;;14.43;;
34359;SDS011;20624;55.870;26.506;2023-03-23T07:55:09;96.05;;;18.77;;
34359;SDS011;20624;55.870;26.506;2023-03-23T07:57:48;70.40;;;15.30;;
34359;SDS011;20624;55.870;26.506;2023-03-23T08:00:17;81.68;;;18.45;;
34359;SDS011;20624;55.870;26.506;2023-03-23T08:02:53;68.90;;;14.68;;
34359;SDS011;20624;55.870;26.506;2023-03-23T08:05:24;70.45;;;16.38;;
34359;SDS011;20624;55.870;26.506;2023-03-23T08:07:51;50.45;;;12.68;;
34359;SDS011;20624;55.870;26.506;2023-03-23T08:10:20;52.78;;;13.18;;
34359;SDS011;20624;55.870;26.506;2023-03-23T08:12:50;65.88;;;15.75;;
34359;SDS011;20624;55.870;26.506;2023-03-23T08:15:18;68.43;;;16.13;;
34359;SDS011;20624;55.870;26.506;2023-03-23T08:17:46;42.03;;;13.80;;
34359;SDS011;20624;55.870;26.506;2023-03-23T08:20:13;73.65;;;16.30;;
34359;SDS011;20624;55.870;26.506;2023-03-23T08:22:43;52.72;;;12.93;;
34359;SDS011;20624;55.870;26.506;2023-03-23T08:25:11;53.08;;;14.65;;
34359;SDS011;20624;55.870;26.506;2023-03-23T08:27:40;61.75;;;16.17;;
34359;SDS011;20624;55.870;26.506;2023-03-23T08:30:11;59.80;;;13.35;;
34359;SDS011;20624;55.870;26.506;2023-03-23T08:32:39;66.97;;;15.43;;
34359;SDS011;20624;55.870;26.506;2023-03-23T08:35:07;48.75;;;12.80;;
34359;SDS011;20624;55.870;26.506;2023-03-23T08:37:35;39.33;;;11.52;;
34359;SDS011;20624;55.870;26.506;2023-03-23T08:40:02;45.30;;;13.73;;
34359;SDS011;20624;55.870;26.506;2023-03-23T08:42:43;59.50;;;15.40;;
34359;SDS011;20624;55.870;26.506;2023-03-23T08:45:12;44.65;;;12.15;;
34359;SDS011;20624;55.870;26.506;2023-03-23T08:47:42;56.58;;;13.45;;
34359;SDS011;20624;55.870;26.506;2023-03-23T08:50:11;74.30;;;16.30;;
34359;SDS011;20624;55.870;26.506;2023-03-23T08:52:38;46.80;;;16.50;;
34359;SDS011;20624;55.870;26.506;2023-03-23T08:55:07;49.45;;;15.77;;
34359;SDS011;20624;55.870;26.506;2023-03-23T08:57:36;52.05;;;14.82;;
34359;SDS011;20624;55.870;26.506;2023-03-23T09:00:04;62.10;;;16.30;;
34359;SDS011;20624;55.870;26.506;2023-03-23T09:02:43;47.75;;;13.80;;
34359;SDS011;20624;55.870;26.506;2023-03-23T09:05:09;49.28;;;15.73;;
34359;SDS011;20624;55.870;26.506;2023-03-23T09:07:40;48.30;;;16.92;;
34359;SDS011;20624;55.870;26.506;2023-03-23T09:10:09;120.75;;;26.05;;
34359;SDS011;20624;55.870;26.506;2023-03-23T09:12:36;118.72;;;24.67;;
34359;SDS011;20624;55.870;26.506;2023-03-23T09:15:04;99.10;;;20.13;;
34359;SDS011;20624;55.870;26.506;2023-03-23T09:17:38;87.95;;;20.73;;
34359;SDS011;20624;55.870;26.506;2023-03-23T09:20:05;98.97;;;16.30;;
34359;SDS011;20624;55.870;26.506;2023-03-23T09:22:39;128.32;;;23.02;;
34359;SDS011;20624;55.870;26.506;2023-03-23T09:25:06;118.57;;;21.65;;
34359;SDS011;20624;55.870;26.506;2023-03-23T09:27:34;110.80;;;23.48;;
34359;SDS011;20624;55.870;26.506;2023-03-23T09:30:07;105.53;;;22.92;;
34359;SDS011;20624;55.870;26.506;2023-03-23T09:32:35;86.97;;;19.73;;
34359;SDS011;20624;55.870;26.506;2023-03-23T09:35:04;83.85;;;18.77;;
34359;SDS011;20624;55.870;26.506;2023-03-23T09:37:33;74.40;;;19.80;;
34359;SDS011;20624;55.870;26.506;2023-03-23T09:40:01;55.47;;;13.07;;
34359;SDS011;20624;55.870;26.506;2023-03-23T09:42:32;106.70;;;19.52;;
34359;SDS011;20624;55.870;26.506;2023-03-23T09:45:35;65.53;;;16.55;;
34359;SDS011;20624;55.870;26.506;2023-03-23T09:48:16;48.55;;;13.15;;
34359;SDS011;20624;55.870;26.506;2023-03-23T09:50:46;42.08;;;13.07;;
34359;SDS011;20624;55.870;26.506;2023-03-23T09:53:16;46.08;;;14.00;;
34359;SDS011;20624;55.870;26.506;2023-03-23T09:58:20;85.35;;;17.00;;
34359;SDS011;20624;55.870;26.506;2023-03-23T10:00:53;64.85;;;16.48;;
34359;SDS011;20624;55.870;26.506;2023-03-23T10:03:42;71.28;;;16.05;;
34359;SDS011;20624;55.870;26.506;2023-03-23T10:06:12;69.78;;;14.85;;
34359;SDS011;20624;55.870;26.506;2023-03-23T10:08:46;75.00;;;15.55;;
34359;SDS011;20624;55.870;26.506;2023-03-23T10:11:21;54.10;;;13.98;;
34359;SDS011;20624;55.870;26.506;2023-03-23T10:16:30;63.88;;;15.93;;
34359;SDS011;20624;55.870;26.506;2023-03-23T10:21:24;35.55;;;10.73;;
34359;SDS011;20624;55.870;26.506;2023-03-23T10:23:54;85.43;;;17.88;;
34359;SDS011;20624;55.870;26.506;2023-03-23T10:29:24;49.80;;;13.00;;
34359;SDS011;20624;55.870;26.506;2023-03-23T10:32:00;74.50;;;15.45;;
34359;SDS011;20624;55.870;26.506;2023-03-23T10:34:50;65.82;;;14.98;;
34359;SDS011;20624;55.870;26.506;2023-03-23T10:37:25;84.68;;;18.10;;
34359;SDS011;20624;55.870;26.506;2023-03-23T10:39:53;102.82;;;19.48;;
34359;SDS011;20624;55.870;26.506;2023-03-23T10:44:50;65.85;;;14.50;;
34359;SDS011;20624;55.870;26.506;2023-03-23T10:47:17;51.40;;;13.60;;
34359;SDS011;20624;55.870;26.506;2023-03-23T10:49:58;60.15;;;14.75;;
34359;SDS011;20624;55.870;26.506;2023-03-23T10:55:11;53.20;;;11.68;;
34359;SDS011;20624;55.870;26.506;2023-03-23T10:57:43;54.58;;;12.10;;
34359;SDS011;20624;55.870;26.506;2023-03-23T11:02:45;48.60;;;11.77;;
34359;SDS011;20624;55.870;26.506;2023-03-23T11:05:48;93.30;;;16.88;;
34359;SDS011;20624;55.870;26.506;2023-03-23T11:08:19;85.25;;;16.85;;
34359;SDS011;20624;55.870;26.506;2023-03-23T11:10:50;58.97;;;11.48;;
34359;SDS011;20624;55.870;26.506;2023-03-23T11:13:20;62.22;;;14.27;;
34359;SDS011;20624;55.870;26.506;2023-03-23T11:15:50;91.82;;;16.55;;
34359;SDS011;20624;55.870;26.506;2023-03-23T11:18:21;111.07;;;21.38;;
34359;SDS011;20624;55.870;26.506;2023-03-23T11:21:13;131.20;;;20.30;;
34359;SDS011;20624;55.870;26.506;2023-03-23T11:23:41;105.60;;;13.77;;
34359;SDS011;20624;55.870;26.506;2023-03-23T11:28:36;85.95;;;11.85;;
34359;SDS011;20624;55.870;26.506;2023-03-23T11:31:08;89.13;;;13.43;;
34359;SDS011;20624;55.870;26.506;2023-03-23T11:33:36;96.90;;;13.48;;
34359;SDS011;20624;55.870;26.506;2023-03-23T11:36:04;85.60;;;11.93;;
34359;SDS011;20624;55.870;26.506;2023-03-23T11:38:33;61.35;;;8.25;;
34359;SDS011;20624;55.870;26.506;2023-03-23T11:41:00;48.83;;;10.63;;
34359;SDS011;20624;55.870;26.506;2023-03-23T11:43:26;74.07;;;10.52;;
34359;SDS011;20624;55.870;26.506;2023-03-23T11:45:58;60.85;;;9.05;;
34359;SDS011;20624;55.870;26.506;2023-03-23T11:51:20;84.40;;;12.90;;
34359;SDS011;20624;55.870;26.506;2023-03-23T11:53:57;76.82;;;10.70;;
34359;SDS011;20624;55.870;26.506;2023-03-23T11:56:36;33.30;;;5.10;;
34359;SDS011;20624;55.870;26.506;2023-03-23T11:59:09;31.73;;;4.70;;
34359;SDS011;20624;55.870;26.506;2023-03-23T12:17:33;65.10;;;9.80;;
34359;SDS011;20624;55.870;26.506;2023-03-23T12:30:53;87.30;;;12.27;;
34359;SDS011;20624;55.870;26.506;2023-03-23T12:39:36;28.63;;;4.38;;
34359;SDS011;20624;55.870;26.506;2023-03-23T12:44:47;31.98;;;7.93;;
34359;SDS011;20624;55.870;26.506;2023-03-23T12:47:29;46.15;;;8.68;;
34359;SDS011;20624;55.870;26.506;2023-03-23T12:50:05;32.78;;;7.55;;
34359;SDS011;20624;55.870;26.506;2023-03-23T12:55:34;55.95;;;10.50;;
34359;SDS011;20624;55.870;26.506;2023-03-23T12:58:12;61.78;;;13.38;;
34359;SDS011;20624;55.870;26.506;2023-03-23T13:05:47;57.25;;;12.52;;
34359;SDS011;20624;55.870;26.506;2023-03-23T13:08:25;45.70;;;10.57;;
34359;SDS011;20624;55.870;26.506;2023-03-23T13:11:14;62.38;;;19.30;;
34359;SDS011;20624;55.870;26.506;2023-03-23T13:13:50;58.38;;;14.05;;
34359;SDS011;20624;55.870;26.506;2023-03-23T13:22:09;99.18;;;35.08;;
34359;SDS011;20624;55.870;26.506;2023-03-23T13:24:50;95.93;;;31.80;;
34359;SDS011;20624;55.870;26.506;2023-03-23T13:27:25;101.38;;;30.38;;
34359;SDS011;20624;55.870;26.506;2023-03-23T13:29:53;86.22;;;21.38;;
34359;SDS011;20624;55.870;26.506;2023-03-23T13:32:21;86.15;;;19.50;;
34359;SDS011;20624;55.870;26.506;2023-03-23T13:34:55;46.38;;;14.40;;
34359;SDS011;20624;55.870;26.506;2023-03-23T13:37:25;62.45;;;15.38;;
34359;SDS011;20624;55.870;26.506;2023-03-23T13:42:22;58.88;;;12.25;;
34359;SDS011;20624;55.870;26.506;2023-03-23T13:50:03;45.58;;;9.27;;
34359;SDS011;20624;55.870;26.506;2023-03-23T13:52:51;43.63;;;9.20;;
34359;SDS011;20624;55.870;26.506;2023-03-23T13:55:29;43.45;;;8.25;;
34359;SDS011;20624;55.870;26.506;2023-03-23T14:13:04;25.25;;;3.85;;
34359;SDS011;20624;55.870;26.506;2023-03-23T14:15:40;22.30;;;3.58;;
34359;SDS011;20624;55.870;26.506;2023-03-23T14:18:41;46.30;;;6.20;;
34359;SDS011;20624;55.870;26.506;2023-03-23T14:21:15;59.15;;;8.05;;
34359;SDS011;20624;55.870;26.506;2023-03-23T14:23:41;22.85;;;3.75;;
34359;SDS011;20624;55.870;26.506;2023-03-23T14:26:12;28.08;;;4.13;;
34359;SDS011;20624;55.870;26.506;2023-03-23T14:28:40;43.97;;;8.07;;
34359;SDS011;20624;55.870;26.506;2023-03-23T14:31:16;30.00;;;5.05;;
34359;SDS011;20624;55.870;26.506;2023-03-23T14:33:43;40.80;;;5.50;;
34359;SDS011;20624;55.870;26.506;2023-03-23T14:36:10;32.17;;;6.88;;
34359;SDS011;20624;55.870;26.506;2023-03-23T14:38:36;18.15;;;5.50;;
34359;SDS011;20624;55.870;26.506;2023-03-23T14:41:04;48.70;;;8.45;;
34359;SDS011;20624;55.870;26.506;2023-03-23T14:43:32;42.60;;;8.63;;
34359;SDS011;20624;55.870;26.506;2023-03-23T14:46:00;43.05;;;10.52;;
34359;SDS011;20624;55.870;26.506;2023-03-23T14:48:27;45.25;;;11.43;;
34359;SDS011;20624;55.870;26.506;2023-03-23T14:50:58;42.53;;;8.82;;
34359;SDS011;20624;55.870;26.506;2023-03-23T14:53:37;37.75;;;9.93;;
34359;SDS011;20624;55.870;26.506;2023-03-23T14:56:12;37.05;;;9.38;;
34359;SDS011;20624;55.870;26.506;2023-03-23T14:58:50;33.75;;;8.57;;
34359;SDS011;20624;55.870;26.506;2023-03-23T15:01:27;28.27;;;7.32;;
34359;SDS011;20624;55.870;26.506;2023-03-23T15:03:56;29.33;;;10.32;;
34359;SDS011;20624;55.870;26.506;2023-03-23T15:06:32;30.67;;;8.77;;
34359;SDS011;20624;55.870;26.506;2023-03-23T15:09:01;29.00;;;10.52;;
34359;SDS011;20624;55.870;26.506;2023-03-23T15:11:37;34.22;;;10.95;;
34359;SDS011;20624;55.870;26.506;2023-03-23T15:14:24;26.13;;;9.82;;
34359;SDS011;20624;55.870;26.506;2023-03-23T15:16:55;26.40;;;9.85;;
34359;SDS011;20624;55.870;26.506;2023-03-23T15:19:37;33.13;;;10.95;;
34359;SDS011;20624;55.870;26.506;2023-03-23T15:22:29;37.30;;;11.65;;
34359;SDS011;20624;55.870;26.506;2023-03-23T15:25:12;26.88;;;10.32;;
34359;SDS011;20624;55.870;26.506;2023-03-23T15:27:48;56.95;;;21.05;;
34359;SDS011;20624;55.870;26.506;2023-03-23T15:32:54;60.42;;;20.00;;
34359;SDS011;20624;55.870;26.506;2023-03-23T15:35:26;58.80;;;22.92;;
34359;SDS011;20624;55.870;26.506;2023-03-23T15:37:56;58.88;;;21.40;;
34359;SDS011;20624;55.870;26.506;2023-03-23T15:40:24;37.08;;;19.38;;
34359;SDS011;20624;55.870;26.506;2023-03-23T15:45:53;26.25;;;11.60;;
34359;SDS011;20624;55.870;26.506;2023-03-23T15:48:31;40.90;;;13.65;;
34359;SDS011;20624;55.870;26.506;2023-03-23T15:50:58;42.83;;;17.30;;
34359;SDS011;20624;55.870;26.506;2023-03-23T15:53:32;43.88;;;21.08;;
34359;SDS011;20624;55.870;26.506;2023-03-23T15:56:01;43.60;;;17.27;;
34359;SDS011;20624;55.870;26.506;2023-03-23T15:58:29;36.88;;;17.10;;
34359;SDS011;20624;55.870;26.506;2023-03-23T16:00:57;49.15;;;16.58;;
34359;SDS011;20624;55.870;26.506;2023-03-23T16:03:26;31.63;;;13.00;;
34359;SDS011;20624;55.870;26.506;2023-03-23T16:06:00;46.97;;;17.80;;
34359;SDS011;20624;55.870;26.506;2023-03-23T16:08:28;51.00;;;21.95;;
34359;SDS011;20624;55.870;26.506;2023-03-23T16:10:56;43.90;;;16.95;;
34359;SDS011;20624;55.870;26.506;2023-03-23T16:13:25;36.45;;;14.13;;
34359;SDS011;20624;55.870;26.506;2023-03-23T16:15:53;30.65;;;11.85;;
34359;SDS011;20624;55.870;26.506;2023-03-23T16:18:21;32.50;;;11.23;;
34359;SDS011;20624;55.870;26.506;2023-03-23T16:20:48;29.05;;;10.48;;
34359;SDS011;20624;55.870;26.506;2023-03-23T16:23:16;31.23;;;12.13;;
34359;SDS011;20624;55.870;26.506;2023-03-23T16:25:44;29.27;;;11.13;;
34359;SDS011;20624;55.870;26.506;2023-03-23T16:28:11;25.20;;;10.98;;
34359;SDS011;20624;55.870;26.506;2023-03-23T16:30:40;30.55;;;10.25;;